createdAt,value
2018-07-05T00:00:57.799Z,99.99
2018-07-05T00:01:58.045Z,99.99
2018-07-05T00:02:58.285Z,99.99
2018-07-05T00:03:58.529Z,99.99
2018-07-05T00:04:58.778Z,99.99
2018-07-05T00:05:59.019Z,99.99
2018-07-05T00:06:59.262Z,99.99
2018-07-05T00:07:59.506Z,99.99
2018-07-05T00:08:59.750Z,99.99
2018-07-05T00:09:59.995Z,99.99
2018-07-05T00:11:00.239Z,99.99
2018-07-05T00:12:00.483Z,99.99
2018-07-05T00:13:00.727Z,99.99
2018-07-05T00:14:00.971Z,99.99
2018-07-05T00:15:01.217Z,99.99
2018-07-05T00:16:01.460Z,99.99
2018-07-05T00:17:01.706Z,99.99
2018-07-05T00:18:01.948Z,99.99
2018-07-05T00:19:02.194Z,99.99
2018-07-05T00:20:02.442Z,99.40
2018-07-05T00:21:02.683Z,99.40
2018-07-05T00:22:02.929Z,98.43
2018-07-05T00:23:03.175Z,99.68
2018-07-05T00:24:03.417Z,96.94
2018-07-05T00:25:03.661Z,96.03
2018-07-05T00:26:03.905Z,95.31
2018-07-05T00:27:04.156Z,93.97
2018-07-05T00:28:04.393Z,93.25
2018-07-05T00:29:04.638Z,94.40
2018-07-05T00:30:04.881Z,94.31
2018-07-05T00:31:05.125Z,94.49
2018-07-05T00:32:05.368Z,94.88
2018-07-05T00:33:05.612Z,94.31
2018-07-05T00:34:05.856Z,92.91
2018-07-05T00:35:06.100Z,91.38
2018-07-05T00:36:06.350Z,93.10
2018-07-05T00:37:06.643Z,86.92
2018-07-05T00:38:06.831Z,84.91
2018-07-05T00:39:07.075Z,91.52
2018-07-05T00:40:07.318Z,87.07
2018-07-05T00:41:07.564Z,85.15
2018-07-05T00:42:07.808Z,82.04
2018-07-05T00:43:08.053Z,72.94
2018-07-05T00:44:08.296Z,68.40
2018-07-05T00:45:08.539Z,44.66
2018-07-05T00:46:08.782Z,49.65
2018-07-05T00:47:09.026Z,56.67
2018-07-05T00:48:09.268Z,62.33
2018-07-05T00:49:09.538Z,62.33
2018-07-05T00:50:09.758Z,67.25
2018-07-05T00:51:10.004Z,70.90
2018-07-05T00:52:10.245Z,72.24
2018-07-05T00:53:10.488Z,71.86
2018-07-05T00:54:10.730Z,72.33
2018-07-05T00:55:10.972Z,73.68
2018-07-05T00:56:11.217Z,74.26
2018-07-05T00:57:11.459Z,74.44
2018-07-05T00:58:11.702Z,73.68
2018-07-05T00:59:11.946Z,76.46
2018-07-05T01:00:12.189Z,76.65
2018-07-05T01:01:12.431Z,79.05
2018-07-05T01:02:12.676Z,77.13
2018-07-05T01:03:12.919Z,76.75
2018-07-05T01:04:13.162Z,80.01
2018-07-05T01:05:13.406Z,81.59
2018-07-05T01:06:13.650Z,79.82
2018-07-05T01:07:13.893Z,81.64
2018-07-05T01:08:14.136Z,86.72
2018-07-05T01:09:14.377Z,77.33
2018-07-05T01:10:14.624Z,83.14
2018-07-05T01:11:14.868Z,68.95
2018-07-05T01:12:15.109Z,83.23
2018-07-05T01:13:15.353Z,79.39
2018-07-05T01:14:15.595Z,69.20
2018-07-05T01:15:15.839Z,67.66
2018-07-05T01:16:16.082Z,56.64
2018-07-05T01:17:16.326Z,46.58
2018-07-05T01:18:16.569Z,47.92
2018-07-05T01:19:16.812Z,49.29
2018-07-05T01:20:17.055Z,55.04
2018-07-05T01:21:17.297Z,60.25
2018-07-05T01:22:17.545Z,64.85
2018-07-05T01:23:17.784Z,66.67
2018-07-05T01:24:18.028Z,71.09
2018-07-05T01:25:18.271Z,71.66
2018-07-05T01:26:18.514Z,73.10
2018-07-05T01:27:18.758Z,73.97
2018-07-05T01:28:19.002Z,71.86
2018-07-05T01:29:19.245Z,74.06
2018-07-05T01:30:19.486Z,76.46
2018-07-05T01:31:19.732Z,76.84
2018-07-05T01:32:19.976Z,77.23
2018-07-05T01:33:20.220Z,76.94
2018-07-05T01:34:20.463Z,77.04
2018-07-05T01:35:20.707Z,74.54
2018-07-05T01:36:20.951Z,73.68
2018-07-05T01:37:21.195Z,74.44
2018-07-05T01:38:21.442Z,71.72
2018-07-05T01:39:21.681Z,70.51
2018-07-05T01:40:21.925Z,71.28
2018-07-05T01:41:22.172Z,70.19
2018-07-05T01:42:22.413Z,69.13
2018-07-05T01:43:22.657Z,70.38
2018-07-05T01:44:22.901Z,69.33
2018-07-05T01:45:23.144Z,67.99
2018-07-05T01:46:23.388Z,67.12
2018-07-05T01:47:23.633Z,64.05
2018-07-05T01:48:23.877Z,64.25
2018-07-05T01:49:24.119Z,65.39
2018-07-05T01:50:24.363Z,65.78
2018-07-05T01:51:24.607Z,64.25
2018-07-05T01:52:24.850Z,62.62
2018-07-05T01:53:25.097Z,62.33
2018-07-05T01:54:25.363Z,61.94
2018-07-05T01:55:25.581Z,63.09
2018-07-05T01:56:25.827Z,63.96
2018-07-05T01:57:26.070Z,62.42
2018-07-05T01:58:26.314Z,59.64
2018-07-05T01:59:26.556Z,56.29
2018-07-05T02:00:26.800Z,58.87
2018-07-05T02:01:27.044Z,63.57
2018-07-05T02:02:27.287Z,65.78
2018-07-05T02:03:27.530Z,67.63
2018-07-05T02:04:27.775Z,67.44
2018-07-05T02:05:28.019Z,67.44
2018-07-05T02:06:28.264Z,66.49
2018-07-05T02:07:28.508Z,66.74
2018-07-05T02:08:28.750Z,67.41
2018-07-05T02:09:28.994Z,69.04
2018-07-05T02:10:29.236Z,68.75
2018-07-05T02:11:29.479Z,66.83
2018-07-05T02:12:29.722Z,65.55
2018-07-05T02:13:29.965Z,53.67
2018-07-05T02:14:30.259Z,48.11
2018-07-05T02:15:30.454Z,48.21
2018-07-05T02:16:30.697Z,55.18
2018-07-05T02:17:30.940Z,61.21
2018-07-05T02:18:31.195Z,45.09
2018-07-05T02:19:31.426Z,39.73
2018-07-05T02:20:31.669Z,20.02
2018-07-05T02:21:31.916Z,22.99
2018-07-05T02:22:32.156Z,25.57
2018-07-05T02:23:32.397Z,30.84
2018-07-05T02:24:32.640Z,33.72
2018-07-05T02:25:32.884Z,33.81
2018-07-05T02:26:33.127Z,33.24
2018-07-05T02:27:33.370Z,33.43
2018-07-05T02:28:33.614Z,30.08
2018-07-05T02:29:33.858Z,25.77
2018-07-05T02:30:34.101Z,22.41
2018-07-05T02:31:34.344Z,21.55
2018-07-05T02:32:34.586Z,20.50
2018-07-05T02:33:34.828Z,20.59
2018-07-05T02:34:35.071Z,23.08
2018-07-05T02:35:35.316Z,23.94
2018-07-05T02:36:35.557Z,24.52
2018-07-05T02:37:35.799Z,23.85
2018-07-05T02:38:36.043Z,22.99
2018-07-05T02:39:36.285Z,25.57
2018-07-05T02:40:36.531Z,25.86
2018-07-05T02:41:36.772Z,28.46
2018-07-05T02:42:37.015Z,32.68
2018-07-05T02:43:37.258Z,36.22
2018-07-05T02:44:37.503Z,38.43
2018-07-05T02:45:37.750Z,40.73
2018-07-05T02:46:37.989Z,42.46
2018-07-05T02:47:38.232Z,46.58
2018-07-05T02:48:38.475Z,48.13
2018-07-05T02:49:38.718Z,50.43
2018-07-05T02:50:38.960Z,50.63
2018-07-05T02:51:39.203Z,50.15
2018-07-05T02:52:39.446Z,52.07
2018-07-05T02:53:39.690Z,51.49
2018-07-05T02:54:39.933Z,50.63
2018-07-05T02:55:40.177Z,51.10
2018-07-05T02:56:40.420Z,52.55
2018-07-05T02:57:40.662Z,54.27
2018-07-05T02:58:40.906Z,63.38
2018-07-05T02:59:41.148Z,53.48
2018-07-05T03:00:41.391Z,49.36
2018-07-05T03:01:41.634Z,49.74
2018-07-05T03:02:41.878Z,52.14
2018-07-05T03:03:42.122Z,50.60
2018-07-05T03:04:42.367Z,48.40
2018-07-05T03:05:42.610Z,49.36
2018-07-05T03:06:42.855Z,50.92
2018-07-05T03:07:43.098Z,50.53
2018-07-05T03:08:43.340Z,55.13
2018-07-05T03:09:43.585Z,52.71
2018-07-05T03:10:43.829Z,52.74
2018-07-05T03:11:44.073Z,52.07
2018-07-05T03:12:44.317Z,53.28
2018-07-05T03:13:44.564Z,51.46
2018-07-05T03:14:44.807Z,50.79
2018-07-05T03:15:45.055Z,52.91
2018-07-05T03:16:45.300Z,48.21
2018-07-05T03:17:45.547Z,46.96
2018-07-05T03:18:45.795Z,45.72
2018-07-05T03:19:46.045Z,44.27
2018-07-05T03:20:46.287Z,42.17
2018-07-05T03:21:46.533Z,38.81
2018-07-05T03:22:46.778Z,40.25
2018-07-05T03:23:47.030Z,46.12
2018-07-05T03:24:47.273Z,50.34
2018-07-05T03:25:47.519Z,52.16
2018-07-05T03:26:47.769Z,53.22
2018-07-05T03:27:48.014Z,54.37
2018-07-05T03:28:48.257Z,57.63
2018-07-05T03:29:48.500Z,58.69
2018-07-05T03:30:48.747Z,59.26
2018-07-05T03:31:48.989Z,60.60
2018-07-05T03:32:49.226Z,61.18
2018-07-05T03:33:49.469Z,61.66
2018-07-05T03:34:49.711Z,60.12
2018-07-05T03:35:49.959Z,61.27
2018-07-05T03:36:50.199Z,60.03
2018-07-05T03:37:50.441Z,60.70
2018-07-05T03:38:50.686Z,61.37
2018-07-05T03:39:50.928Z,59.83
2018-07-05T03:40:51.173Z,59.26
2018-07-05T03:41:51.418Z,60.41
2018-07-05T03:42:51.661Z,61.75
2018-07-05T03:43:51.904Z,63.67
2018-07-05T03:44:52.147Z,64.72
2018-07-05T03:45:52.391Z,67.02
2018-07-05T03:46:52.636Z,66.06
2018-07-05T03:47:52.878Z,64.82
2018-07-05T03:48:53.124Z,67.99
2018-07-05T03:49:53.367Z,65.11
2018-07-05T03:50:53.612Z,64.59
2018-07-05T03:51:53.857Z,59.33
2018-07-05T03:52:54.105Z,52.42
2018-07-05T03:53:54.344Z,49.16
2018-07-05T03:54:54.589Z,44.85
2018-07-05T03:55:54.834Z,48.30
2018-07-05T03:56:55.079Z,44.27
2018-07-05T03:57:55.324Z,44.76
2018-07-05T03:58:55.572Z,46.96
2018-07-05T03:59:55.812Z,47.82
2018-07-05T04:00:56.058Z,47.06
2018-07-05T04:01:56.301Z,45.33
2018-07-05T04:02:56.545Z,45.14
2018-07-05T04:03:56.787Z,44.56
2018-07-05T04:04:57.031Z,45.62
2018-07-05T04:05:57.277Z,41.21
2018-07-05T04:06:57.523Z,43.34
2018-07-05T04:07:57.765Z,45.64
2018-07-05T04:08:58.008Z,50.53
2018-07-05T04:09:58.249Z,55.26
2018-07-05T04:10:58.496Z,58.52
2018-07-05T04:11:58.738Z,62.45
2018-07-05T04:12:58.983Z,65.14
2018-07-05T04:13:59.225Z,66.49
2018-07-05T04:14:59.471Z,69.36
2018-07-05T04:15:59.721Z,70.51
2018-07-05T04:16:59.954Z,71.19
2018-07-05T04:18:00.199Z,71.80
2018-07-05T04:19:00.440Z,71.51
2018-07-05T04:20:00.684Z,71.89
2018-07-05T04:21:00.931Z,73.24
2018-07-05T04:22:01.172Z,74.01
2018-07-05T04:23:01.415Z,74.68
2018-07-05T04:24:01.693Z,75.06
2018-07-05T04:25:01.949Z,75.54
2018-07-05T04:26:02.145Z,76.79
2018-07-05T04:27:02.388Z,77.75
2018-07-05T04:28:02.631Z,77.26
2018-07-05T04:29:02.875Z,77.17
2018-07-05T04:30:03.118Z,76.98
2018-07-05T04:31:03.363Z,75.89
2018-07-05T04:32:03.606Z,74.68
2018-07-05T04:33:03.850Z,74.64
2018-07-05T04:34:04.108Z,75.21
2018-07-05T04:35:04.336Z,76.59
2018-07-05T04:36:04.581Z,77.94
2018-07-05T04:37:04.821Z,77.56
2018-07-05T04:38:05.064Z,77.04
2018-07-05T04:39:05.311Z,75.40
2018-07-05T04:40:05.556Z,75.92
2018-07-05T04:41:05.795Z,75.54
2018-07-05T04:42:06.038Z,77.84
2018-07-05T04:43:06.280Z,78.61
2018-07-05T04:44:06.524Z,80.24
2018-07-05T04:45:06.766Z,80.53
2018-07-05T04:46:07.009Z,80.63
2018-07-05T04:47:07.251Z,81.20
2018-07-05T04:48:07.496Z,81.01
2018-07-05T04:49:07.740Z,80.53
2018-07-05T04:50:07.982Z,80.34
2018-07-05T04:51:08.227Z,78.80
2018-07-05T04:52:08.470Z,79.67
2018-07-05T04:53:08.711Z,78.80
2018-07-05T04:54:08.956Z,79.57
2018-07-05T04:55:09.207Z,80.53
2018-07-05T04:56:09.447Z,78.99
2018-07-05T04:57:09.688Z,78.84
2018-07-05T04:58:09.929Z,78.75
2018-07-05T04:59:10.173Z,77.59
2018-07-05T05:00:10.418Z,78.94
2018-07-05T05:01:10.662Z,79.99
2018-07-05T05:02:10.907Z,81.05
2018-07-05T05:03:11.150Z,82.49
2018-07-05T05:04:11.393Z,82.68
2018-07-05T05:05:11.638Z,82.87
2018-07-05T05:06:11.881Z,81.15
2018-07-05T05:07:12.126Z,82.34
2018-07-05T05:08:12.370Z,80.47
2018-07-05T05:09:12.619Z,79.71
2018-07-05T05:10:12.859Z,78.84
2018-07-05T05:11:13.103Z,79.99
2018-07-05T05:12:13.347Z,79.90
2018-07-05T05:13:13.591Z,79.80
2018-07-05T05:14:13.833Z,79.55
2018-07-05T05:15:14.081Z,82.15
2018-07-05T05:16:14.322Z,84.26
2018-07-05T05:17:14.569Z,83.59
2018-07-05T05:18:14.814Z,84.45
2018-07-05T05:19:15.057Z,85.13
2018-07-05T05:20:15.300Z,82.82
2018-07-05T05:21:15.547Z,83.78
2018-07-05T05:22:15.786Z,83.87
2018-07-05T05:23:16.029Z,84.01
2018-07-05T05:24:16.322Z,84.50
2018-07-05T05:25:16.518Z,85.07
2018-07-05T05:26:16.761Z,85.84
2018-07-05T05:27:17.006Z,87.38
2018-07-05T05:28:17.251Z,89.69
2018-07-05T05:29:17.493Z,92.23
2018-07-05T05:30:17.739Z,93.38
2018-07-05T05:31:17.980Z,95.02
2018-07-05T05:32:18.223Z,96.17
2018-07-05T05:33:18.468Z,95.89
2018-07-05T05:34:18.713Z,95.79
2018-07-05T05:35:18.956Z,94.54
2018-07-05T05:36:19.201Z,94.54
2018-07-05T05:37:19.444Z,96.94
2018-07-05T05:38:19.695Z,98.44
2018-07-05T05:39:19.937Z,98.54
2018-07-05T05:40:20.177Z,98.34
2018-07-05T05:41:20.424Z,97.86
2018-07-05T05:42:20.664Z,98.34
2018-07-05T05:43:20.912Z,97.76
2018-07-05T05:44:21.160Z,96.51
2018-07-05T05:45:21.399Z,98.34
2018-07-05T05:46:21.644Z,98.63
2018-07-05T05:47:21.890Z,99.01
2018-07-05T05:48:22.132Z,99.30
2018-07-05T05:49:22.380Z,99.99
2018-07-05T05:50:22.621Z,99.84
2018-07-05T05:51:22.865Z,99.99
2018-07-05T05:52:23.111Z,99.99
2018-07-05T05:53:23.357Z,99.99
2018-07-05T05:54:23.602Z,99.99
2018-07-05T05:55:23.849Z,99.99
2018-07-05T05:56:24.093Z,99.99
2018-07-05T05:57:24.336Z,99.99
2018-07-05T05:58:24.582Z,99.99
2018-07-05T05:59:24.826Z,99.98
2018-07-05T06:00:25.072Z,99.99
2018-07-05T06:01:25.318Z,99.99
2018-07-05T06:02:25.562Z,99.99
2018-07-05T06:03:25.808Z,99.99
2018-07-05T06:04:26.052Z,99.99
2018-07-05T06:05:26.296Z,99.99
2018-07-05T06:06:26.542Z,99.99
2018-07-05T06:07:26.788Z,99.99
2018-07-05T06:08:27.037Z,99.99
2018-07-05T06:09:27.279Z,99.99
2018-07-05T06:10:27.524Z,99.99
2018-07-05T06:11:27.770Z,99.99
2018-07-05T06:12:28.015Z,99.99
2018-07-05T06:13:28.259Z,99.99
2018-07-05T06:14:28.504Z,99.99
2018-07-05T06:15:28.751Z,99.99
2018-07-05T06:16:28.997Z,99.99
2018-07-05T06:17:29.242Z,99.99
2018-07-05T06:18:29.534Z,99.99
2018-07-05T06:19:29.734Z,99.99
2018-07-05T06:20:29.979Z,99.99
2018-07-05T06:21:30.226Z,99.99
2018-07-05T06:22:30.471Z,99.99
2018-07-05T06:23:30.717Z,99.99
2018-07-05T06:24:30.958Z,99.99
2018-07-05T06:25:31.220Z,99.99
2018-07-05T06:26:31.455Z,99.99
2018-07-05T06:27:31.702Z,99.99
2018-07-05T06:28:31.948Z,99.99
2018-07-05T06:29:32.191Z,99.99
2018-07-05T06:30:32.437Z,99.99
2018-07-05T06:31:32.680Z,99.99
2018-07-05T06:32:32.926Z,99.99
2018-07-05T06:33:33.172Z,99.99
2018-07-05T06:34:33.416Z,99.99
2018-07-05T06:35:33.664Z,99.99
2018-07-05T06:36:33.907Z,99.99
2018-07-05T06:37:34.155Z,99.99
2018-07-05T06:38:34.402Z,99.99
2018-07-05T06:39:34.700Z,99.99
2018-07-05T06:40:34.896Z,99.99
2018-07-05T06:41:35.141Z,99.99
2018-07-05T06:42:35.386Z,99.99
2018-07-05T06:43:35.633Z,99.99
2018-07-05T06:44:35.879Z,99.99
2018-07-05T06:45:36.126Z,99.99
2018-07-05T06:46:36.375Z,99.99
2018-07-05T06:47:36.621Z,99.99
2018-07-05T06:48:36.869Z,99.99
2018-07-05T06:49:37.116Z,99.99
2018-07-05T06:50:37.360Z,99.99
2018-07-05T06:51:37.606Z,99.99
2018-07-05T06:52:37.854Z,99.99
2018-07-05T06:53:38.102Z,99.99
2018-07-05T06:54:38.346Z,99.99
2018-07-05T06:55:38.592Z,99.99
2018-07-05T06:56:38.839Z,99.99
2018-07-05T06:57:39.087Z,99.99
2018-07-05T06:58:39.333Z,99.99
2018-07-05T06:59:39.580Z,99.99
2018-07-05T07:00:39.825Z,99.99
2018-07-05T07:01:40.077Z,99.99
2018-07-05T07:02:40.323Z,99.99
2018-07-05T07:03:40.570Z,99.99
2018-07-05T07:04:40.823Z,99.99
2018-07-05T07:05:41.069Z,99.99
2018-07-05T07:06:41.313Z,99.99
2018-07-05T07:07:41.566Z,99.99
2018-07-05T07:08:41.810Z,99.99
2018-07-05T07:09:42.057Z,99.99
2018-07-05T07:10:42.305Z,99.99
2018-07-05T07:11:42.553Z,99.99
2018-07-05T07:12:42.799Z,99.99
2018-07-05T07:13:43.048Z,99.99
2018-07-05T07:14:43.295Z,99.99
2018-07-05T07:15:43.545Z,99.99
2018-07-05T07:16:43.796Z,99.99
2018-07-05T07:17:44.041Z,99.99
2018-07-05T07:18:44.288Z,99.99
2018-07-05T07:19:44.534Z,99.99
2018-07-05T07:20:44.782Z,99.99
2018-07-05T07:21:45.036Z,99.99
2018-07-05T07:22:45.278Z,99.99
2018-07-05T07:23:45.526Z,99.75
2018-07-05T07:24:45.775Z,98.10
2018-07-05T07:25:46.023Z,97.42
2018-07-05T07:26:46.271Z,92.43
2018-07-05T07:27:46.519Z,83.63
2018-07-05T07:28:46.766Z,75.35
2018-07-05T07:29:47.013Z,69.32
2018-07-05T07:30:47.262Z,65.14
2018-07-05T07:31:47.551Z,60.64
2018-07-05T07:32:47.759Z,57.71
2018-07-05T07:33:48.009Z,56.45
2018-07-05T07:34:48.259Z,54.83
2018-07-05T07:35:48.509Z,54.08
2018-07-05T07:36:48.757Z,53.49
2018-07-05T07:37:49.010Z,54.32
2018-07-05T07:38:49.253Z,55.44
2018-07-05T07:39:49.504Z,55.86
2018-07-05T07:40:49.754Z,56.35
2018-07-05T07:41:50.002Z,54.74
2018-07-05T07:42:50.251Z,53.76
2018-07-05T07:43:50.500Z,54.59
2018-07-05T07:44:50.753Z,57.56
2018-07-05T07:45:50.998Z,58.34
2018-07-05T07:46:51.250Z,58.76
2018-07-05T07:47:51.500Z,57.78
2018-07-05T07:48:51.751Z,58.59
2018-07-05T07:49:52.003Z,56.27
2018-07-05T07:50:52.254Z,56.05
2018-07-05T07:51:52.505Z,56.15
2018-07-05T07:52:52.757Z,56.76
2018-07-05T07:53:53.009Z,54.64
2018-07-05T07:54:53.261Z,54.54
2018-07-05T07:55:53.513Z,53.98
2018-07-05T07:56:53.765Z,53.00
2018-07-05T07:57:54.019Z,52.17
2018-07-05T07:58:54.269Z,50.63
2018-07-05T07:59:54.522Z,50.20
2018-07-05T08:00:54.772Z,48.47
2018-07-05T08:01:55.027Z,47.22
2018-07-05T08:02:55.276Z,46.04
2018-07-05T08:03:55.533Z,46.17
2018-07-05T08:04:55.783Z,44.52
2018-07-05T08:05:56.035Z,44.52
2018-07-05T08:06:56.289Z,43.93
2018-07-05T08:07:56.551Z,44.89
2018-07-05T08:08:56.796Z,45.28
2018-07-05T08:09:57.049Z,44.79
2018-07-05T08:10:57.304Z,44.44
2018-07-05T08:11:57.560Z,43.38
2018-07-05T08:12:57.812Z,43.08
2018-07-05T08:13:58.066Z,43.28
2018-07-05T08:14:58.324Z,43.46
2018-07-05T08:15:58.575Z,43.53
2018-07-05T08:16:58.834Z,44.02
2018-07-05T08:17:59.082Z,44.32
2018-07-05T08:18:59.342Z,43.68
2018-07-05T08:19:59.595Z,42.28
2018-07-05T08:20:59.854Z,42.00
2018-07-05T08:22:00.109Z,41.80
2018-07-05T08:23:00.363Z,43.88
2018-07-05T08:24:00.619Z,46.30
2018-07-05T08:25:00.876Z,45.88
2018-07-05T08:26:01.132Z,47.89
2018-07-05T08:27:01.385Z,47.62
2018-07-05T08:28:01.642Z,45.63
2018-07-05T08:29:01.911Z,44.98
2018-07-05T08:30:02.151Z,44.69
2018-07-05T08:31:02.407Z,44.22
2018-07-05T08:32:02.663Z,42.86
2018-07-05T08:33:02.916Z,42.96
2018-07-05T08:34:03.173Z,43.04
2018-07-05T08:35:03.426Z,44.05
2018-07-05T08:36:03.686Z,42.69
2018-07-05T08:37:03.938Z,41.41
2018-07-05T08:38:04.192Z,42.82
2018-07-05T08:39:04.448Z,42.63
2018-07-05T08:40:04.708Z,42.57
2018-07-05T08:41:04.959Z,41.88
2018-07-05T08:42:05.217Z,42.32
2018-07-05T08:43:05.471Z,41.64
2018-07-05T08:44:05.724Z,43.02
2018-07-05T08:45:05.979Z,43.12
2018-07-05T08:46:06.234Z,42.00
2018-07-05T08:47:06.489Z,40.76
2018-07-05T08:48:06.745Z,41.17
2018-07-05T08:49:07.000Z,41.24
2018-07-05T08:50:07.259Z,41.86
2018-07-05T08:51:07.531Z,40.31
2018-07-05T08:52:07.770Z,41.83
2018-07-05T08:53:08.029Z,41.85
2018-07-05T08:54:08.283Z,42.85
2018-07-05T08:55:08.541Z,45.02
2018-07-05T08:56:08.796Z,46.37
2018-07-05T08:57:09.051Z,45.80
2018-07-05T08:58:09.334Z,46.17
2018-07-05T08:59:09.562Z,45.41
2018-07-05T09:00:09.819Z,46.37
2018-07-05T09:01:10.077Z,47.23
2018-07-05T09:02:10.332Z,47.67
2018-07-05T09:03:10.589Z,44.81
2018-07-05T09:04:10.849Z,42.99
2018-07-05T09:05:11.141Z,41.38
2018-07-05T09:06:11.358Z,40.13
2018-07-05T09:07:11.613Z,39.72
2018-07-05T09:08:11.871Z,40.08
2018-07-05T09:09:12.124Z,40.66
2018-07-05T09:10:12.380Z,40.11
2018-07-05T09:11:12.637Z,40.78
2018-07-05T09:12:12.892Z,41.16
2018-07-05T09:13:13.149Z,42.92
2018-07-05T09:14:13.405Z,44.92
2018-07-05T09:15:13.660Z,44.67
2018-07-05T09:16:13.917Z,45.49
2018-07-05T09:17:14.173Z,47.30
2018-07-05T09:18:14.512Z,48.72
2018-07-05T09:19:14.685Z,47.17
2018-07-05T09:20:14.942Z,44.01
2018-07-05T09:21:15.200Z,42.28
2018-07-05T09:22:15.453Z,40.45
2018-07-05T09:23:15.770Z,39.09
2018-07-05T09:24:15.962Z,37.05
2018-07-05T09:25:16.221Z,36.11
2018-07-05T09:26:16.477Z,35.71
2018-07-05T09:27:16.730Z,36.00
2018-07-05T09:28:16.987Z,36.30
2018-07-05T09:29:17.242Z,36.11
2018-07-05T09:30:17.499Z,34.51
2018-07-05T09:31:17.802Z,34.55
2018-07-05T09:32:18.009Z,34.55
2018-07-05T09:33:18.268Z,34.72
2018-07-05T09:34:18.528Z,38.01
2018-07-05T09:35:18.780Z,40.47
2018-07-05T09:36:19.037Z,41.09
2018-07-05T09:37:19.353Z,40.33
2018-07-05T09:38:19.551Z,39.45
2018-07-05T09:39:19.810Z,38.92
2018-07-05T09:40:20.064Z,38.35
2018-07-05T09:41:20.321Z,40.72
2018-07-05T09:42:20.578Z,40.00
2018-07-05T09:43:20.837Z,38.60
2018-07-05T09:44:21.095Z,38.34
2018-07-05T09:45:21.349Z,36.99
2018-07-05T09:46:21.605Z,36.13
2018-07-05T09:47:21.862Z,35.64
2018-07-05T09:48:22.125Z,33.89
2018-07-05T09:49:22.375Z,34.94
2018-07-05T09:50:22.631Z,36.30
2018-07-05T09:51:22.921Z,36.00
2018-07-05T09:52:23.156Z,35.51
2018-07-05T09:53:23.399Z,33.79
2018-07-05T09:54:23.657Z,33.62
2018-07-05T09:55:23.912Z,34.03
2018-07-05T09:56:24.174Z,33.95
2018-07-05T09:57:24.423Z,33.04
2018-07-05T09:58:24.680Z,31.99
2018-07-05T09:59:24.935Z,31.71
2018-07-05T10:00:25.191Z,30.64
2018-07-05T10:01:25.448Z,32.01
2018-07-05T10:02:25.704Z,31.68
2018-07-05T10:03:26.025Z,35.62
2018-07-05T10:04:26.222Z,39.01
2018-07-05T10:05:26.474Z,37.23
2018-07-05T10:06:26.730Z,36.00
2018-07-05T10:07:26.988Z,36.11
2018-07-05T10:08:27.244Z,35.54
2018-07-05T10:09:27.501Z,34.59
2018-07-05T10:10:27.760Z,34.22
2018-07-05T10:11:28.016Z,37.16
2018-07-05T10:12:28.276Z,38.76
2018-07-05T10:13:28.630Z,40.51
2018-07-05T10:14:28.791Z,41.55
2018-07-05T10:15:29.045Z,41.58
2018-07-05T10:16:29.303Z,40.68
2018-07-05T10:17:29.560Z,41.39
2018-07-05T10:18:29.815Z,40.33
2018-07-05T10:19:30.157Z,40.41
2018-07-05T10:20:30.329Z,40.88
2018-07-05T10:21:30.585Z,40.43
2018-07-05T10:22:30.842Z,40.74
2018-07-05T10:23:31.098Z,39.78
2018-07-05T10:24:31.355Z,39.64
2018-07-05T10:25:31.614Z,41.33
2018-07-05T10:26:31.870Z,42.65
2018-07-05T10:27:32.126Z,42.13
2018-07-05T10:28:32.382Z,42.74
2018-07-05T10:29:32.639Z,44.59
2018-07-05T10:30:32.894Z,43.96
2018-07-05T10:31:33.149Z,44.82
2018-07-05T10:32:33.408Z,45.92
2018-07-05T10:33:33.664Z,48.14
2018-07-05T10:34:33.917Z,49.24
2018-07-05T10:35:34.173Z,49.34
2018-07-05T10:36:34.429Z,46.92
2018-07-05T10:37:34.683Z,46.46
2018-07-05T10:38:34.937Z,44.94
2018-07-05T10:39:35.251Z,43.91
2018-07-05T10:40:35.446Z,43.40
2018-07-05T10:41:35.700Z,43.96
2018-07-05T10:42:35.954Z,45.14
2018-07-05T10:43:36.206Z,44.04
2018-07-05T10:44:36.462Z,43.95
2018-07-05T10:45:36.718Z,43.48
2018-07-05T10:46:36.971Z,42.91
2018-07-05T10:47:37.223Z,42.61
2018-07-05T10:48:37.477Z,41.82
2018-07-05T10:49:37.735Z,42.22
2018-07-05T10:50:37.990Z,40.50
2018-07-05T10:51:38.244Z,39.98
2018-07-05T10:52:38.497Z,39.43
2018-07-05T10:53:38.752Z,38.68
2018-07-05T10:54:39.041Z,37.95
2018-07-05T10:55:39.260Z,34.87
2018-07-05T10:56:39.518Z,36.99
2018-07-05T10:57:39.775Z,36.76
2018-07-05T10:58:40.030Z,38.23
2018-07-05T10:59:40.283Z,38.02
2018-07-05T11:00:40.537Z,38.76
2018-07-05T11:01:40.794Z,40.23
2018-07-05T11:02:41.047Z,39.54
2018-07-05T11:03:41.299Z,37.98
2018-07-05T11:04:41.555Z,38.67
2018-07-05T11:05:41.808Z,39.15
2018-07-05T11:06:42.063Z,39.84
2018-07-05T11:07:42.319Z,40.84
2018-07-05T11:08:42.576Z,39.07
2018-07-05T11:09:42.823Z,37.31
2018-07-05T11:10:43.078Z,36.61
2018-07-05T11:11:43.332Z,38.49
2018-07-05T11:12:43.586Z,38.37
2018-07-05T11:13:43.840Z,38.78
2018-07-05T11:14:44.134Z,38.49
2018-07-05T11:15:44.346Z,39.56
2018-07-05T11:16:44.678Z,38.94
2018-07-05T11:17:44.856Z,38.86
2018-07-05T11:18:45.111Z,38.06
2018-07-05T11:19:45.364Z,38.39
2018-07-05T11:20:45.619Z,37.23
2018-07-05T11:21:45.878Z,36.84
2018-07-05T11:22:46.131Z,36.41
2018-07-05T11:23:46.383Z,39.00
2018-07-05T11:24:46.639Z,39.49
2018-07-05T11:25:46.892Z,37.75
2018-07-05T11:26:47.139Z,35.61
2018-07-05T11:27:47.394Z,35.73
2018-07-05T11:28:47.648Z,34.47
2018-07-05T11:29:47.901Z,33.50
2018-07-05T11:30:48.155Z,33.90
2018-07-05T11:31:48.409Z,34.18
2018-07-05T11:32:48.664Z,35.35
2018-07-05T11:33:48.918Z,35.13
2018-07-05T11:34:49.173Z,35.52
2018-07-05T11:35:49.428Z,35.40
2018-07-05T11:36:49.682Z,35.71
2018-07-05T11:37:49.935Z,35.52
2018-07-05T11:38:50.195Z,35.03
2018-07-05T11:39:50.444Z,34.64
2018-07-05T11:40:50.697Z,34.38
2018-07-05T11:41:50.958Z,34.11
2018-07-05T11:42:51.342Z,33.84
2018-07-05T11:43:51.464Z,33.44
2018-07-05T11:44:51.719Z,34.30
2018-07-05T11:45:51.974Z,35.17
2018-07-05T11:46:52.316Z,34.75
2018-07-05T11:47:52.512Z,36.87
2018-07-05T11:48:52.741Z,36.02
2018-07-05T11:49:52.998Z,37.35
2018-07-05T11:50:53.254Z,38.02
2018-07-05T11:51:53.507Z,39.02
2018-07-05T11:52:53.760Z,39.12
2018-07-05T11:53:54.018Z,36.79
2018-07-05T11:54:54.394Z,37.19
2018-07-05T11:55:54.522Z,36.80
2018-07-05T11:56:54.775Z,36.04
2018-07-05T11:57:55.029Z,36.04
2018-07-05T11:58:55.283Z,33.72
2018-07-05T11:59:55.538Z,33.75
2018-07-05T12:00:55.792Z,33.22
2018-07-05T12:01:56.080Z,31.63
2018-07-05T12:02:56.320Z,31.76
2018-07-05T12:03:56.552Z,30.60
2018-07-05T12:04:56.804Z,31.28
2018-07-05T12:05:57.059Z,30.97
2018-07-05T12:06:57.316Z,30.85
2018-07-05T12:07:57.567Z,31.05
2018-07-05T12:08:57.824Z,31.82
2018-07-05T12:09:58.079Z,32.94
2018-07-05T12:10:58.335Z,35.73
2018-07-05T12:11:58.590Z,36.30
2018-07-05T12:12:58.845Z,37.85
2018-07-05T12:13:59.100Z,38.12
2018-07-05T12:14:59.354Z,37.12
2018-07-05T12:15:59.609Z,35.53
2018-07-05T12:16:59.863Z,35.86
2018-07-05T12:18:00.116Z,36.59
2018-07-05T12:19:00.370Z,37.96
2018-07-05T12:20:00.627Z,37.96
2018-07-05T12:21:00.882Z,39.45
2018-07-05T12:22:01.136Z,40.86
2018-07-05T12:23:01.391Z,40.90
2018-07-05T12:24:01.688Z,40.70
2018-07-05T12:25:01.900Z,39.78
2018-07-05T12:26:02.155Z,38.15
2018-07-05T12:27:02.408Z,37.48
2018-07-05T12:28:02.664Z,37.12
2018-07-05T12:29:02.936Z,37.76
2018-07-05T12:30:03.171Z,37.84
2018-07-05T12:31:03.430Z,39.09
2018-07-05T12:32:03.679Z,41.00
2018-07-05T12:33:03.935Z,42.15
2018-07-05T12:34:04.191Z,42.35
2018-07-05T12:35:04.446Z,41.31
2018-07-05T12:36:04.701Z,41.11
2018-07-05T12:37:04.957Z,41.64
2018-07-05T12:38:05.285Z,42.90
2018-07-05T12:39:05.466Z,42.91
2018-07-05T12:40:05.718Z,43.29
2018-07-05T12:41:05.973Z,42.72
2018-07-05T12:42:06.227Z,42.90
2018-07-05T12:43:06.481Z,43.66
2018-07-05T12:44:06.737Z,44.64
2018-07-05T12:45:06.990Z,42.84
2018-07-05T12:46:07.244Z,41.53
2018-07-05T12:47:07.498Z,40.48
2018-07-05T12:48:07.753Z,39.82
2018-07-05T12:49:08.008Z,39.25
2018-07-05T12:50:08.259Z,39.44
2018-07-05T12:51:08.517Z,40.01
2018-07-05T12:52:08.768Z,40.01
2018-07-05T12:53:09.024Z,40.08
2018-07-05T12:54:09.281Z,42.45
2018-07-05T12:55:09.531Z,44.44
2018-07-05T12:56:09.784Z,45.30